createdAt,value
2018-08-24T00:00:13.392Z,20.30
2018-08-24T00:02:41.099Z,20.30
2018-08-24T00:05:08.813Z,20.40
2018-08-24T00:07:39.311Z,20.30
2018-08-24T00:10:07.368Z,20.50
2018-08-24T00:12:36.733Z,20.60
2018-08-24T00:15:05.595Z,20.50
2018-08-24T00:17:33.287Z,20.20
2018-08-24T00:20:01.362Z,20.60
2018-08-24T00:22:29.143Z,20.60
2018-08-24T00:24:56.887Z,20.60
2018-08-24T00:27:24.582Z,20.40
2018-08-24T00:29:52.338Z,20.20
2018-08-24T00:32:20.035Z,20.20
2018-08-24T00:34:47.775Z,20.30
2018-08-24T00:37:15.449Z,20.20
2018-08-24T00:39:44.076Z,19.70
2018-08-24T00:42:12.431Z,19.60
2018-08-24T00:44:40.519Z,19.60
2018-08-24T00:47:08.271Z,19.50
2018-08-24T00:49:35.980Z,18.90
2018-08-24T00:52:03.690Z,19.00
2018-08-24T00:54:31.381Z,19.00
2018-08-24T00:56:59.139Z,18.90
2018-08-24T00:59:26.883Z,18.80
2018-08-24T01:01:54.646Z,18.80
2018-08-24T01:04:27.944Z,18.80
2018-08-24T01:06:55.643Z,18.70
2018-08-24T01:09:25.735Z,18.60
2018-08-24T01:12:00.299Z,18.30
2018-08-24T01:14:28.037Z,18.70
2018-08-24T01:17:01.312Z,18.60
2018-08-24T01:19:29.076Z,18.50
2018-08-24T01:21:56.776Z,18.60
2018-08-24T01:24:29.115Z,18.40
2018-08-24T01:27:02.445Z,18.40
2018-08-24T01:29:31.295Z,18.40
2018-08-24T01:31:59.050Z,18.40
2018-08-24T01:34:26.733Z,18.30
2018-08-24T01:36:54.521Z,18.20
2018-08-24T01:39:22.207Z,18.30
2018-08-24T01:41:49.917Z,18.20
2018-08-24T01:44:17.634Z,18.00
2018-08-24T01:46:45.307Z,17.90
2018-08-24T01:49:13.058Z,17.70
2018-08-24T01:51:40.735Z,17.70
2018-08-24T01:54:08.495Z,17.60
2018-08-24T01:56:36.172Z,17.30
2018-08-24T01:59:03.992Z,17.60
2018-08-24T02:01:31.670Z,17.90
2018-08-24T02:03:59.370Z,17.30
2018-08-24T02:06:27.087Z,17.20
2018-08-24T02:08:54.802Z,17.50
2018-08-24T02:11:27.995Z,17.60
2018-08-24T02:14:01.322Z,17.50
2018-08-24T02:16:36.427Z,17.70
2018-08-24T02:19:08.619Z,17.40
2018-08-24T02:21:41.900Z,16.90
2018-08-24T02:24:10.384Z,17.40
2018-08-24T02:26:38.123Z,17.30
2018-08-24T02:29:05.795Z,17.20
2018-08-24T02:31:39.050Z,17.40
2018-08-24T02:34:06.880Z,17.30
2018-08-24T02:36:34.567Z,17.40
2018-08-24T02:39:02.427Z,17.10
2018-08-24T02:41:30.111Z,17.20
2018-08-24T02:43:58.755Z,17.50
2018-08-24T02:46:26.515Z,17.40
2018-08-24T02:48:54.265Z,17.50
2018-08-24T02:51:21.955Z,17.50
2018-08-24T02:53:49.679Z,16.80
2018-08-24T02:56:17.370Z,17.30
2018-08-24T02:58:45.113Z,17.40
2018-08-24T03:01:12.840Z,17.70
2018-08-24T03:03:40.515Z,17.40
2018-08-24T03:06:08.225Z,17.10
2018-08-24T03:08:35.916Z,17.30
2018-08-24T03:11:03.615Z,17.30
2018-08-24T03:13:31.378Z,17.70
2018-08-24T03:15:59.103Z,17.40
2018-08-24T03:18:26.815Z,17.40
2018-08-24T03:20:54.487Z,17.00
2018-08-24T03:23:22.203Z,17.10
2018-08-24T03:25:49.875Z,16.90
2018-08-24T03:28:17.618Z,17.10
2018-08-24T03:30:45.287Z,17.00
2018-08-24T03:33:13.042Z,17.10
2018-08-24T03:35:40.751Z,17.30
2018-08-24T03:38:08.448Z,17.30
2018-08-24T03:40:36.141Z,17.20
2018-08-24T03:43:03.916Z,17.10
2018-08-24T03:45:31.639Z,16.80
2018-08-24T03:47:59.336Z,17.10
2018-08-24T03:50:27.016Z,17.40
2018-08-24T03:52:54.781Z,17.70
2018-08-24T03:55:22.515Z,17.20
2018-08-24T03:57:50.243Z,17.40
2018-08-24T04:00:17.923Z,17.50
2018-08-24T04:02:46.323Z,17.00
2018-08-24T04:05:14.480Z,17.20
2018-08-24T04:07:42.746Z,17.20
2018-08-24T04:10:10.545Z,17.10
2018-08-24T04:12:38.256Z,17.30
2018-08-24T04:15:06.035Z,17.50
2018-08-24T04:17:41.179Z,17.60
2018-08-24T04:20:08.943Z,17.40
2018-08-24T04:22:36.714Z,17.60
2018-08-24T04:25:05.102Z,17.30
2018-08-24T04:27:32.835Z,17.50
2018-08-24T04:30:00.541Z,17.60
2018-08-24T04:32:28.251Z,17.50
2018-08-24T04:34:56.011Z,17.60
2018-08-24T04:37:23.755Z,17.50
2018-08-24T04:39:51.448Z,17.40
2018-08-24T04:42:19.159Z,17.40
2018-08-24T04:44:46.859Z,17.70
2018-08-24T04:47:14.603Z,17.60
2018-08-24T04:49:42.303Z,17.60
2018-08-24T04:52:09.994Z,17.80
2018-08-24T04:54:37.735Z,17.50
2018-08-24T04:57:05.449Z,17.60
2018-08-24T04:59:33.160Z,17.50
2018-08-24T05:02:00.859Z,17.60
2018-08-24T05:04:28.542Z,17.40
2018-08-24T05:06:56.241Z,17.40
2018-08-24T05:09:23.934Z,17.50
2018-08-24T05:11:51.642Z,17.50
2018-08-24T05:14:19.384Z,17.40
2018-08-24T05:16:47.171Z,17.00
2018-08-24T05:19:14.848Z,17.50
2018-08-24T05:21:42.545Z,17.60
2018-08-24T05:24:10.259Z,17.50
2018-08-24T05:26:37.934Z,17.60
2018-08-24T05:29:05.656Z,17.50
2018-08-24T05:31:33.344Z,17.40
2018-08-24T05:34:01.063Z,17.50
2018-08-24T05:36:28.766Z,17.60
2018-08-24T05:38:56.468Z,17.40
2018-08-24T05:41:24.261Z,17.60
2018-08-24T05:43:51.931Z,17.50
2018-08-24T05:46:19.639Z,17.60
2018-08-24T05:48:47.337Z,17.50
2018-08-24T05:51:15.069Z,17.60
2018-08-24T05:53:42.788Z,17.80
2018-08-24T05:56:10.488Z,17.50
2018-08-24T05:58:38.176Z,17.60
2018-08-24T06:01:05.903Z,17.40
2018-08-24T06:03:33.600Z,17.60
2018-08-24T06:06:02.319Z,17.60
2018-08-24T06:08:30.653Z,17.80
2018-08-24T06:10:58.875Z,18.00
2018-08-24T06:13:26.571Z,17.80
2018-08-24T06:15:54.326Z,17.90
2018-08-24T06:18:22.019Z,17.80
2018-08-24T06:20:49.719Z,17.70
2018-08-24T06:23:17.535Z,17.80
2018-08-24T06:25:45.329Z,18.30
2018-08-24T06:28:13.014Z,17.90
2018-08-24T06:30:40.736Z,17.90
2018-08-24T06:33:08.445Z,18.00
2018-08-24T06:35:36.134Z,18.10
2018-08-24T06:38:03.935Z,17.90
2018-08-24T06:40:31.686Z,18.00
2018-08-24T06:42:59.400Z,18.20
2018-08-24T06:45:27.130Z,18.40
2018-08-24T06:47:54.882Z,18.50
2018-08-24T06:50:22.894Z,18.40
2018-08-24T06:52:50.647Z,18.60
2018-08-24T06:55:18.393Z,18.40
2018-08-24T06:57:46.110Z,18.40
2018-08-24T07:00:13.925Z,18.50
2018-08-24T07:02:41.601Z,18.50
2018-08-24T07:05:09.387Z,18.50
2018-08-24T07:07:37.135Z,18.50
2018-08-24T07:10:05.056Z,18.40
2018-08-24T07:12:32.779Z,18.50
2018-08-24T07:15:00.476Z,18.40
2018-08-24T07:17:33.606Z,17.90
2018-08-24T07:20:01.336Z,18.20
2018-08-24T07:22:29.067Z,18.40
2018-08-24T07:24:56.788Z,18.40
2018-08-24T07:27:24.487Z,18.20
2018-08-24T07:29:52.213Z,18.20
2018-08-24T07:32:19.894Z,18.10
2018-08-24T07:34:47.653Z,18.20
2018-08-24T07:37:15.324Z,18.30
2018-08-24T07:39:43.031Z,18.30
2018-08-24T07:42:10.743Z,18.00
2018-08-24T07:44:44.007Z,18.30
2018-08-24T07:47:11.695Z,18.30
2018-08-24T07:49:39.463Z,18.40
2018-08-24T07:52:07.161Z,18.40
2018-08-24T07:54:34.863Z,18.50
2018-08-24T07:57:02.625Z,18.50
2018-08-24T07:59:30.275Z,18.60
2018-08-24T08:01:57.992Z,18.60
2018-08-24T08:04:25.667Z,18.70
2018-08-24T08:06:53.360Z,18.30
2018-08-24T08:09:21.076Z,18.30
2018-08-24T08:11:48.743Z,18.40
2018-08-24T08:14:16.443Z,18.30
2018-08-24T08:16:44.131Z,18.20
2018-08-24T08:19:11.832Z,18.30
2018-08-24T08:21:39.515Z,18.40
2018-08-24T08:24:07.291Z,18.30
2018-08-24T08:26:35.074Z,18.40
2018-08-24T08:29:03.343Z,18.40
2018-08-24T08:31:31.039Z,18.70
2018-08-24T08:33:58.712Z,18.50
2018-08-24T08:36:26.411Z,18.60
2018-08-24T08:38:54.107Z,18.60
2018-08-24T08:41:21.800Z,19.00
2018-08-24T08:43:49.528Z,18.80
2018-08-24T08:46:17.222Z,18.90
2018-08-24T08:48:44.927Z,18.90
2018-08-24T08:51:12.620Z,18.70
2018-08-24T08:53:40.307Z,18.60
2018-08-24T08:56:07.999Z,19.00
2018-08-24T08:58:35.706Z,19.20
2018-08-24T09:01:03.443Z,19.20
2018-08-24T09:03:31.135Z,19.20
2018-08-24T09:05:58.854Z,19.30
2018-08-24T09:08:26.552Z,19.70
2018-08-24T09:10:54.271Z,20.00
2018-08-24T09:13:21.979Z,20.00
2018-08-24T09:15:49.698Z,20.00
2018-08-24T09:18:23.198Z,20.00
2018-08-24T09:20:56.506Z,19.30
2018-08-24T09:23:29.779Z,18.80
2018-08-24T09:26:03.181Z,18.70
2018-08-24T09:28:34.850Z,18.90
2018-08-24T09:31:06.559Z,19.70
2018-08-24T09:33:34.243Z,22.10
2018-08-24T09:36:07.574Z,22.50
2018-08-24T09:38:35.339Z,23.60
2018-08-24T09:41:03.023Z,24.60
2018-08-24T09:43:36.427Z,25.20
2018-08-24T09:46:04.124Z,26.50
2018-08-24T09:48:36.347Z,25.70
2018-08-24T09:51:09.631Z,25.70
2018-08-24T09:53:43.043Z,24.50
2018-08-24T09:56:10.735Z,23.50
2018-08-24T09:58:38.454Z,22.80
2018-08-24T10:01:11.916Z,22.60
2018-08-24T10:03:45.367Z,22.30
2018-08-24T10:06:18.928Z,23.40
2018-08-24T10:08:48.681Z,23.60
2018-08-24T10:11:16.376Z,25.00
2018-08-24T10:13:44.065Z,26.30
2018-08-24T10:16:11.815Z,24.60
2018-08-24T10:18:39.509Z,23.20
2018-08-24T10:21:07.681Z,22.00
2018-08-24T10:23:35.451Z,22.70
2018-08-24T10:26:03.143Z,23.30
2018-08-24T10:28:31.095Z,24.70
2018-08-24T10:30:58.778Z,25.30
2018-08-24T10:33:26.603Z,26.50
2018-08-24T10:35:54.327Z,26.00
2018-08-24T10:38:21.991Z,25.40
2018-08-24T10:40:49.737Z,25.40
2018-08-24T10:43:17.392Z,26.00
2018-08-24T10:45:45.174Z,27.50
2018-08-24T10:48:12.969Z,27.70
2018-08-24T10:50:40.628Z,29.10
2018-08-24T10:53:08.307Z,28.90
2018-08-24T10:55:36.090Z,28.60
2018-08-24T10:58:03.782Z,28.50
2018-08-24T11:00:31.706Z,27.60
2018-08-24T11:02:59.419Z,26.30
2018-08-24T11:05:27.163Z,26.20
2018-08-24T11:07:54.759Z,26.40
2018-08-24T11:10:22.455Z,26.30
2018-08-24T11:12:50.134Z,27.00
2018-08-24T11:15:17.819Z,28.30
2018-08-24T11:17:51.027Z,28.30
2018-08-24T11:20:18.787Z,27.70
2018-08-24T11:22:46.451Z,26.80
2018-08-24T11:25:14.150Z,26.00
2018-08-24T11:27:41.854Z,24.60
2018-08-24T11:30:09.587Z,23.10
2018-08-24T11:32:37.308Z,22.50
2018-08-24T11:35:05.280Z,22.70
2018-08-24T11:37:33.007Z,24.90
2018-08-24T11:40:00.707Z,25.60
2018-08-24T11:42:28.927Z,25.20
2018-08-24T11:44:56.699Z,24.50
2018-08-24T11:47:24.374Z,24.70
2018-08-24T11:49:52.205Z,25.00
2018-08-24T11:52:20.899Z,24.50
2018-08-24T11:54:48.683Z,25.00
2018-08-24T11:57:16.359Z,24.80
2018-08-24T11:59:44.093Z,25.30
2018-08-24T12:02:11.910Z,25.30
2018-08-24T12:04:39.819Z,24.10
2018-08-24T12:07:07.519Z,24.40
2018-08-24T12:09:35.251Z,24.90
2018-08-24T12:12:02.984Z,24.50
2018-08-24T12:14:30.647Z,24.30
2018-08-24T12:16:58.716Z,24.30
2018-08-24T12:19:26.415Z,24.90
2018-08-24T12:21:54.179Z,25.20
2018-08-24T12:24:21.921Z,25.50
2018-08-24T12:26:49.575Z,26.50
2018-08-24T12:29:17.284Z,26.50
2018-08-24T12:31:44.991Z,25.70
2018-08-24T12:34:12.682Z,26.60
2018-08-24T12:36:40.403Z,26.40
2018-08-24T12:39:09.499Z,25.70
2018-08-24T12:41:37.211Z,26.00
2018-08-24T12:44:05.059Z,26.90
2018-08-24T12:46:32.843Z,26.40
2018-08-24T12:49:00.495Z,25.50
2018-08-24T12:51:28.368Z,26.30
2018-08-24T12:53:56.136Z,26.60
2018-08-24T12:56:23.784Z,26.10
2018-08-24T12:58:51.994Z,26.10
2018-08-24T13:01:20.163Z,26.90
2018-08-24T13:03:48.238Z,27.30
2018-08-24T13:06:15.928Z,27.10
2018-08-24T13:08:44.095Z,26.30
2018-08-24T13:11:12.189Z,26.10
2018-08-24T13:13:40.101Z,26.10
2018-08-24T13:16:07.907Z,24.80
2018-08-24T13:18:35.699Z,24.60
2018-08-24T13:21:03.622Z,25.50
2018-08-24T13:23:31.290Z,25.80
2018-08-24T13:25:58.947Z,26.10
2018-08-24T13:28:26.619Z,25.80
2018-08-24T13:30:54.340Z,24.70
2018-08-24T13:33:22.066Z,24.60
2018-08-24T13:35:49.735Z,25.00
2018-08-24T13:38:17.416Z,24.80
2018-08-24T13:40:45.139Z,25.10
2018-08-24T13:43:12.843Z,24.80
2018-08-24T13:45:40.573Z,24.60
2018-08-24T13:48:09.931Z,25.00
2018-08-24T13:50:37.783Z,24.30
2018-08-24T13:53:05.565Z,24.30
2018-08-24T13:55:33.727Z,24.20
2018-08-24T13:58:01.872Z,24.20
2018-08-24T14:00:29.592Z,23.80
2018-08-24T14:02:57.582Z,24.00
2018-08-24T14:05:25.383Z,24.40
2018-08-24T14:07:53.086Z,23.70
2018-08-24T14:10:20.888Z,23.50
2018-08-24T14:12:48.625Z,23.50
2018-08-24T14:15:16.335Z,23.60
2018-08-24T14:17:48.547Z,23.40
2018-08-24T14:20:16.311Z,22.90
2018-08-24T14:22:43.991Z,23.10
2018-08-24T14:25:11.669Z,22.50
2018-08-24T14:27:39.431Z,22.80
2018-08-24T14:30:07.568Z,22.60
2018-08-24T14:32:35.259Z,22.80
2018-08-24T14:35:02.994Z,22.70
2018-08-24T14:37:30.698Z,22.40
2018-08-24T14:39:58.366Z,22.60
2018-08-24T14:42:26.096Z,22.20
2018-08-24T14:44:53.836Z,22.00
2018-08-24T14:47:21.570Z,22.60
2018-08-24T14:49:49.291Z,22.10
2018-08-24T14:52:16.999Z,22.80
2018-08-24T14:54:44.741Z,22.90
2018-08-24T14:57:12.463Z,22.70
2018-08-24T14:59:40.177Z,22.80
2018-08-24T15:02:07.922Z,22.40
2018-08-24T15:04:35.685Z,22.40
2018-08-24T15:07:03.355Z,22.00
2018-08-24T15:09:31.031Z,22.20
2018-08-24T15:11:58.723Z,21.90
2018-08-24T15:14:26.387Z,22.30
2018-08-24T15:16:54.158Z,22.60
2018-08-24T15:19:21.842Z,22.70
2018-08-24T15:21:49.579Z,22.80
2018-08-24T15:24:17.322Z,22.60
2018-08-24T15:26:45.015Z,22.20
2018-08-24T15:29:12.736Z,22.20
2018-08-24T15:31:40.418Z,22.10
2018-08-24T15:34:08.102Z,22.00
2018-08-24T15:36:35.791Z,21.80
2018-08-24T15:39:06.014Z,21.40
2018-08-24T15:41:33.858Z,21.50
2018-08-24T15:44:01.620Z,21.90
2018-08-24T15:46:29.501Z,21.40
2018-08-24T15:48:57.213Z,21.50
2018-08-24T15:51:24.891Z,21.40
2018-08-24T15:53:52.637Z,21.50
2018-08-24T15:56:20.328Z,21.20
2018-08-24T15:58:48.027Z,21.50
2018-08-24T16:01:15.751Z,21.40
2018-08-24T16:03:43.425Z,21.50
2018-08-24T16:06:11.140Z,21.40
2018-08-24T16:08:38.835Z,21.20
2018-08-24T16:11:06.556Z,21.50
2018-08-24T16:13:34.258Z,21.30
2018-08-24T16:16:01.983Z,21.00
2018-08-24T16:18:29.648Z,20.80
2018-08-24T16:20:57.395Z,20.60
2018-08-24T16:23:25.056Z,21.00
2018-08-24T16:25:52.775Z,21.20
2018-08-24T16:28:20.447Z,21.10
2018-08-24T16:30:48.143Z,20.90
2018-08-24T16:33:16.435Z,20.90
2018-08-24T16:35:44.124Z,21.00
2018-08-24T16:38:11.840Z,20.70
2018-08-24T16:40:39.546Z,21.20
2018-08-24T16:43:07.256Z,21.00
2018-08-24T16:45:35.073Z,20.90
2018-08-24T16:48:02.747Z,21.10
2018-08-24T16:50:30.478Z,20.90
2018-08-24T16:52:58.199Z,20.40
2018-08-24T16:55:25.982Z,20.50
2018-08-24T16:57:54.370Z,20.50
2018-08-24T17:00:22.345Z,20.40
2018-08-24T17:02:50.158Z,20.20
2018-08-24T17:05:17.922Z,20.30
2018-08-24T17:07:45.664Z,20.30
2018-08-24T17:10:13.734Z,20.30
2018-08-24T17:12:41.497Z,20.10
2018-08-24T17:15:09.286Z,20.10
2018-08-24T17:17:37.017Z,20.30
2018-08-24T17:20:04.947Z,20.10
2018-08-24T17:22:32.684Z,20.00
2018-08-24T17:25:00.614Z,19.60
2018-08-24T17:27:28.367Z,19.80
2018-08-24T17:29:56.187Z,19.90
2018-08-24T17:32:23.908Z,19.70
2018-08-24T17:34:51.614Z,19.70
2018-08-24T17:37:19.407Z,19.90
2018-08-24T17:39:47.115Z,19.70
2018-08-24T17:42:14.984Z,19.80
2018-08-24T17:44:42.864Z,20.20
2018-08-24T17:47:10.848Z,19.60
2018-08-24T17:49:38.613Z,19.50
2018-08-24T17:52:06.311Z,19.70
2018-08-24T17:54:34.055Z,19.60
2018-08-24T17:57:01.812Z,19.90
2018-08-24T17:59:29.565Z,19.40
2018-08-24T18:01:57.363Z,19.80
2018-08-24T18:04:25.091Z,19.70
2018-08-24T18:06:52.783Z,19.20
2018-08-24T18:09:20.496Z,19.80
2018-08-24T18:11:48.247Z,19.70
2018-08-24T18:14:15.977Z,19.70
2018-08-24T18:16:43.779Z,19.60
2018-08-24T18:19:11.594Z,19.20
2018-08-24T18:21:39.422Z,19.60
2018-08-24T18:24:07.266Z,19.20
2018-08-24T18:26:35.004Z,19.30
2018-08-24T18:29:02.711Z,19.20
2018-08-24T18:31:30.438Z,19.40
2018-08-24T18:33:58.139Z,19.10
2018-08-24T18:36:25.886Z,18.90
2018-08-24T18:38:54.503Z,19.20
2018-08-24T18:41:22.230Z,19.10
2018-08-24T18:43:49.923Z,19.10
2018-08-24T18:46:17.665Z,19.10
2018-08-24T18:48:45.378Z,19.20
2018-08-24T18:51:13.216Z,19.20
2018-08-24T18:53:40.925Z,19.00
2018-08-24T18:56:08.661Z,19.10
2018-08-24T18:58:36.423Z,19.10
2018-08-24T19:01:04.225Z,19.20
2018-08-24T19:03:31.951Z,18.90
2018-08-24T19:05:59.692Z,19.30
2018-08-24T19:08:27.471Z,19.10
2018-08-24T19:11:00.866Z,19.20
2018-08-24T19:13:28.619Z,19.00
2018-08-24T19:15:56.341Z,19.00
2018-08-24T19:18:29.741Z,19.00
2018-08-24T19:21:04.217Z,19.00
2018-08-24T19:23:31.968Z,18.90
2018-08-24T19:25:59.688Z,19.00
2018-08-24T19:28:33.023Z,19.00
2018-08-24T19:31:00.852Z,19.00
2018-08-24T19:33:28.563Z,18.80
2018-08-24T19:35:56.287Z,19.10
2018-08-24T19:38:24.003Z,18.80
2018-08-24T19:40:57.336Z,18.70
2018-08-24T19:43:25.127Z,19.00
2018-08-24T19:45:52.870Z,19.20
2018-08-24T19:48:26.186Z,18.80
2018-08-24T19:50:54.091Z,19.00
2018-08-24T19:53:21.832Z,18.90
2018-08-24T19:55:49.578Z,18.70
2018-08-24T19:58:22.986Z,18.70
2018-08-24T20:00:50.827Z,18.80
2018-08-24T20:03:18.456Z,18.50
2018-08-24T20:06:53.423Z,18.70
2018-08-24T20:09:26.961Z,18.70
2018-08-24T20:11:54.707Z,18.40
2018-08-24T20:14:28.239Z,18.80
2018-08-24T20:17:01.708Z,18.50
2018-08-24T20:19:29.504Z,18.40
2018-08-24T20:21:57.226Z,18.10
2018-08-24T20:24:25.206Z,18.30
2018-08-24T20:26:52.786Z,18.30
2018-08-24T20:29:20.768Z,18.10
2018-08-24T20:31:48.519Z,18.10
2018-08-24T20:34:16.581Z,18.30
2018-08-24T20:36:44.695Z,18.30
2018-08-24T20:39:12.414Z,18.00
2018-08-24T20:41:40.725Z,18.10
2018-08-24T20:44:08.447Z,18.00
2018-08-24T20:46:36.193Z,18.10
2018-08-24T20:49:04.053Z,17.90
2018-08-24T20:51:31.947Z,18.20
2018-08-24T20:53:59.799Z,18.20
2018-08-24T20:56:27.523Z,18.10
2018-08-24T20:58:55.338Z,18.20
2018-08-24T21:01:23.358Z,18.20
2018-08-24T21:03:51.104Z,17.90
2018-08-24T21:06:18.828Z,18.00
2018-08-24T21:08:46.562Z,18.00
2018-08-24T21:11:14.345Z,18.10
2018-08-24T21:13:42.208Z,18.00
2018-08-24T21:16:09.963Z,17.60
2018-08-24T21:18:37.717Z,18.00
2018-08-24T21:21:05.430Z,17.50
2018-08-24T21:23:33.241Z,17.50
2018-08-24T21:26:01.003Z,17.70
2018-08-24T21:28:28.834Z,17.50
2018-08-24T21:30:56.586Z,17.70
2018-08-24T21:33:24.345Z,17.60
2018-08-24T21:35:52.079Z,17.70
2018-08-24T21:38:19.834Z,18.00
2018-08-24T21:40:47.525Z,17.70
2018-08-24T21:43:15.374Z,17.80
2018-08-24T21:45:43.127Z,17.40
2018-08-24T21:48:10.910Z,17.80
2018-08-24T21:50:38.716Z,17.30
2018-08-24T21:53:06.604Z,17.40
2018-08-24T21:55:34.371Z,17.50
2018-08-24T21:58:02.155Z,17.30
2018-08-24T22:00:29.982Z,17.30
2018-08-24T22:02:57.727Z,17.30
2018-08-24T22:05:25.485Z,17.30
2018-08-24T22:07:53.249Z,17.20
2018-08-24T22:10:20.975Z,17.00
2018-08-24T22:12:48.691Z,17.20
2018-08-24T22:15:16.426Z,16.90
2018-08-24T22:17:44.139Z,17.00
2018-08-24T22:20:11.930Z,17.30
2018-08-24T22:22:39.710Z,17.30
2018-08-24T22:25:07.479Z,16.80
2018-08-24T22:27:35.187Z,17.20
2018-08-24T22:30:03.079Z,16.90
2018-08-24T22:32:30.841Z,17.10
2018-08-24T22:34:58.556Z,17.00
2018-08-24T22:37:26.303Z,17.10
2018-08-24T22:39:54.047Z,17.10
2018-08-24T22:42:21.749Z,17.20
2018-08-24T22:44:49.541Z,17.30
2018-08-24T22:47:17.274Z,16.80
2018-08-24T22:49:45.139Z,16.80
2018-08-24T22:52:12.950Z,17.10
2018-08-24T22:54:40.674Z,16.70
2018-08-24T22:57:08.506Z,17.20
2018-08-24T22:59:36.362Z,16.70
2018-08-24T23:02:04.131Z,16.90
2018-08-24T23:04:31.865Z,16.90
2018-08-24T23:06:59.637Z,17.10
2018-08-24T23:09:27.369Z,17.10
2018-08-24T23:11:55.909Z,16.60
2018-08-24T23:14:23.607Z,16.80
2018-08-24T23:16:51.330Z,16.70
2018-08-24T23:19:19.046Z,16.70
2018-08-24T23:21:46.791Z,16.80
2018-08-24T23:24:14.492Z,16.60
2018-08-24T23:26:42.174Z,16.70
2018-08-24T23:29:09.902Z,16.70
2018-08-24T23:31:37.651Z,16.50
2018-08-24T23:34:05.424Z,16.50
2018-08-24T23:36:33.115Z,16.70
2018-08-24T23:39:00.807Z,16.80
2018-08-24T23:41:28.524Z,16.20
2018-08-24T23:43:56.303Z,16.60
2018-08-24T23:46:24.051Z,16.70
2018-08-24T23:48:51.755Z,16.50
2018-08-24T23:51:19.447Z,16.50
2018-08-24T23:53:47.176Z,16.60
2018-08-24T23:56:14.859Z,16.50
2018-08-24T23:58:42.619Z,16.50
